createdAt,value
2022-08-05T00:00:43.760Z,-63.0
2022-08-05T00:05:51.671Z,-63.0
2022-08-05T00:10:58.882Z,-62.8
2022-08-05T00:16:07.199Z,-63.0
2022-08-05T00:21:13.840Z,-62.8
2022-08-05T00:26:21.030Z,-62.9
2022-08-05T00:31:28.862Z,-63.0
2022-08-05T00:36:37.006Z,-63.0
2022-08-05T00:41:43.258Z,-62.9
2022-08-05T00:46:51.101Z,-63.0
2022-08-05T00:51:58.937Z,-63.0
2022-08-05T00:57:06.645Z,-63.0
2022-08-05T01:02:14.635Z,-62.9
2022-08-05T01:07:22.411Z,-62.9
2022-08-05T01:12:29.305Z,-62.9
2022-08-05T01:17:37.573Z,-62.9
2022-08-05T01:22:44.648Z,-62.9
2022-08-05T01:27:52.091Z,-62.9
2022-08-05T01:33:00.154Z,-62.9
2022-08-05T01:38:08.829Z,-62.7
2022-08-05T01:43:16.059Z,-62.9
2022-08-05T01:48:22.612Z,-63.0
2022-08-05T01:53:30.876Z,-62.8
2022-08-05T01:58:37.675Z,-63.0
2022-08-05T02:03:44.863Z,-63.2
2022-08-05T02:08:52.026Z,-62.9
2022-08-05T02:13:58.613Z,-62.8
2022-08-05T02:19:06.047Z,-62.7
2022-08-05T02:24:17.953Z,-62.7
2022-08-05T02:29:26.501Z,-62.8
2022-08-05T02:34:34.397Z,-62.9
2022-08-05T02:39:43.290Z,-62.9
2022-08-05T02:44:50.774Z,-62.9
2022-08-05T02:49:58.677Z,-62.8
2022-08-05T02:55:06.708Z,-62.7
2022-08-05T03:00:15.067Z,-62.8
2022-08-05T03:05:22.805Z,-62.9
2022-08-05T03:10:29.978Z,-62.8
2022-08-05T03:15:37.886Z,-62.9
2022-08-05T03:20:45.530Z,-62.9
2022-08-05T03:25:54.009Z,-63.0
2022-08-05T03:31:02.438Z,-63.1
2022-08-05T03:36:10.398Z,-62.9
2022-08-05T03:41:19.132Z,-63.0
2022-08-05T03:46:26.204Z,-62.9
2022-08-05T03:51:34.011Z,-62.9
2022-08-05T03:56:41.830Z,-63.0
2022-08-05T04:01:48.994Z,-62.9
2022-08-05T04:06:57.498Z,-62.8
2022-08-05T04:12:06.339Z,-62.6
2022-08-05T04:17:14.805Z,-62.6
2022-08-05T04:22:21.748Z,-62.6
2022-08-05T04:27:29.938Z,-62.5
2022-08-05T04:32:37.662Z,-62.5
2022-08-05T04:37:45.819Z,-62.5
2022-08-05T04:42:53.815Z,-62.8
2022-08-05T04:48:00.848Z,-62.7
2022-08-05T04:53:09.852Z,-62.9
2022-08-05T04:58:17.440Z,-62.7
2022-08-05T05:03:25.415Z,-62.7
2022-08-05T05:08:33.767Z,-62.7
2022-08-05T05:13:40.700Z,-62.9
2022-08-05T05:18:48.473Z,-62.7
2022-08-05T05:23:55.733Z,-62.9
2022-08-05T05:29:04.732Z,-62.7
2022-08-05T05:34:12.264Z,-62.8
2022-08-05T05:39:19.391Z,-62.9
2022-08-05T05:44:27.294Z,-62.9
2022-08-05T05:49:34.969Z,-63.0
2022-08-05T05:54:43.288Z,-62.8
2022-08-05T05:59:50.620Z,-62.8
2022-08-05T06:04:57.819Z,-63.0
2022-08-05T06:10:08.092Z,-62.8
2022-08-05T06:15:15.447Z,-63.0
2022-08-05T06:20:23.765Z,-63.1
2022-08-05T06:25:31.123Z,-62.9
2022-08-05T06:30:39.910Z,-62.9
2022-08-05T06:35:47.416Z,-62.8
2022-08-05T06:40:53.979Z,-63.1
2022-08-05T06:46:01.795Z,-62.9
2022-08-05T06:51:10.804Z,-63.1
2022-08-05T06:56:18.893Z,-63.0
2022-08-05T07:01:26.649Z,-62.9
2022-08-05T07:06:34.585Z,-63.0
2022-08-05T07:11:42.801Z,-62.9
2022-08-05T07:16:50.530Z,-62.7
2022-08-05T07:21:57.974Z,-63.0
2022-08-05T07:27:07.335Z,-63.1
2022-08-05T07:32:15.753Z,-62.9
2022-08-05T07:37:23.396Z,-63.0
2022-08-05T07:42:31.125Z,-63.0
2022-08-05T07:47:39.618Z,-62.8
2022-08-05T07:52:47.218Z,-63.0
2022-08-05T07:58:00.369Z,-62.7
2022-08-05T08:03:08.312Z,-62.9
2022-08-05T08:08:16.539Z,-62.9
2022-08-05T08:13:25.274Z,-63.0
2022-08-05T08:18:31.941Z,-62.8
2022-08-05T08:23:39.742Z,-62.8
2022-08-05T08:28:47.915Z,-63.2
2022-08-05T08:33:55.441Z,-62.8
2022-08-05T08:39:03.898Z,-62.8
2022-08-05T08:44:11.710Z,-63.2
2022-08-05T08:49:20.423Z,-63.0
2022-08-05T08:54:28.161Z,-63.0
2022-08-05T08:59:35.896Z,-62.7
2022-08-05T09:04:43.621Z,-63.1
2022-08-05T09:09:50.309Z,-63.0
2022-08-05T09:14:59.291Z,-63.1
2022-08-05T09:20:07.355Z,-62.8
2022-08-05T09:21:38.572Z,-62.8
2022-08-05T09:26:44.960Z,-62.8
2022-08-05T09:31:53.113Z,-62.8
2022-08-05T09:37:01.217Z,-62.7
2022-08-05T09:42:09.088Z,-63.0
2022-08-05T09:47:16.058Z,-63.0
2022-08-05T09:52:23.927Z,-62.9
2022-08-05T09:57:30.626Z,-62.8
2022-08-05T10:02:38.307Z,-62.8
2022-08-05T10:07:45.717Z,-62.8
2022-08-05T10:12:53.841Z,-62.7
2022-08-05T10:18:02.339Z,-62.8
2022-08-05T10:23:10.167Z,-62.8
2022-08-05T10:28:17.945Z,-62.7
2022-08-05T10:33:26.221Z,-62.6
2022-08-05T10:38:33.176Z,-62.8
2022-08-05T10:43:41.160Z,-62.8
2022-08-05T10:48:49.434Z,-62.8
2022-08-05T10:53:56.042Z,-62.8
2022-08-05T10:59:04.409Z,-62.8
2022-08-05T11:04:12.329Z,-62.9
2022-08-05T11:09:18.821Z,-62.7
2022-08-05T11:14:25.500Z,-62.8
2022-08-05T11:19:33.504Z,-63.0
2022-08-05T11:24:41.048Z,-62.9
2022-08-05T11:29:50.300Z,-62.8
2022-08-05T11:34:59.173Z,-62.8
2022-08-05T11:40:06.086Z,-62.5
2022-08-05T11:45:14.030Z,-62.4
2022-08-05T11:50:22.630Z,-62.5
2022-08-05T11:55:30.715Z,-62.4
2022-08-05T12:00:39.220Z,-62.3
2022-08-05T12:05:46.205Z,-62.9
2022-08-05T12:10:54.172Z,-62.7
2022-08-05T12:16:02.310Z,-62.5
2022-08-05T12:21:10.930Z,-62.6
2022-08-05T12:26:17.920Z,-62.3
2022-08-05T12:31:26.026Z,-62.2
2022-08-05T12:36:33.430Z,-62.6
2022-08-05T12:41:40.699Z,-62.5
2022-08-05T12:46:48.084Z,-62.3
2022-08-05T12:51:55.355Z,-62.7
2022-08-05T12:57:02.936Z,-62.7
2022-08-05T13:02:10.644Z,-62.4
2022-08-05T13:07:17.972Z,-62.5
2022-08-05T13:12:25.034Z,-62.7
2022-08-05T13:17:31.735Z,-62.3
2022-08-05T13:22:39.965Z,-62.3
2022-08-05T13:27:46.134Z,-62.3
2022-08-05T13:32:53.972Z,-62.8
2022-08-05T13:38:02.066Z,-62.6
2022-08-05T13:43:09.014Z,-62.3
2022-08-05T13:48:17.199Z,-62.4
2022-08-05T13:53:25.206Z,-62.6
2022-08-05T13:58:31.919Z,-62.8
2022-08-05T14:03:40.144Z,-62.1
2022-08-05T14:08:49.492Z,-62.7
2022-08-05T14:13:57.744Z,-62.5
2022-08-05T14:19:06.729Z,-63.0
2022-08-05T14:24:13.725Z,-62.4
2022-08-05T14:29:21.335Z,-62.7
2022-08-05T14:34:28.690Z,-62.8
2022-08-05T14:39:36.800Z,-62.1
2022-08-05T14:44:43.730Z,-62.9
2022-08-05T14:49:51.062Z,-62.7
2022-08-05T14:54:58.905Z,-62.7
2022-08-05T15:00:06.681Z,-62.5
2022-08-05T15:05:13.226Z,-63.4
2022-08-05T15:10:21.037Z,-63.0
2022-08-05T15:15:28.273Z,-62.5
2022-08-05T15:20:36.124Z,-62.7
2022-08-05T15:25:43.917Z,-62.8
2022-08-05T15:30:50.456Z,-62.5
2022-08-05T15:35:57.185Z,-62.7
2022-08-05T15:41:04.846Z,-62.8
2022-08-05T15:46:12.689Z,-62.6
2022-08-05T15:51:18.594Z,-62.1
2022-08-05T15:56:24.545Z,-62.2
2022-08-05T16:01:32.088Z,-62.4
2022-08-05T16:06:39.100Z,-62.8
2022-08-05T16:11:46.776Z,-62.6
2022-08-05T16:16:54.431Z,-62.6
2022-08-05T16:22:02.718Z,-62.4
2022-08-05T16:27:11.339Z,-62.1
2022-08-05T16:32:18.093Z,-62.4
2022-08-05T16:37:25.527Z,-62.6
2022-08-05T16:42:33.442Z,-62.5
2022-08-05T16:47:41.119Z,-62.4
2022-08-05T16:52:47.839Z,-62.3
2022-08-05T16:57:55.288Z,-62.6
2022-08-05T17:03:02.791Z,-62.3
2022-08-05T17:08:09.931Z,-62.4
2022-08-05T17:13:17.029Z,-62.4
2022-08-05T17:18:23.988Z,-62.3
2022-08-05T17:23:31.645Z,-62.1
2022-08-05T17:28:38.632Z,-62.1
2022-08-05T17:33:46.394Z,-62.3
2022-08-05T17:38:53.602Z,-62.2
2022-08-05T17:44:00.853Z,-62.4
2022-08-05T17:49:08.055Z,-62.2
2022-08-05T17:54:15.893Z,-62.3
2022-08-05T17:59:23.738Z,-62.4
2022-08-05T18:04:30.938Z,-62.5
2022-08-05T18:09:38.189Z,-62.3
2022-08-05T18:15:23.801Z,-62.4
2022-08-05T18:20:32.194Z,-62.3
2022-08-05T18:25:40.568Z,-62.6
2022-08-05T18:30:49.033Z,-62.5
2022-08-05T18:35:56.600Z,-62.3
2022-08-05T18:41:04.880Z,-62.3
2022-08-05T18:46:19.091Z,-62.3
2022-08-05T18:51:27.099Z,-62.4
2022-08-05T18:56:35.350Z,-62.3
2022-08-05T19:01:43.281Z,-62.4
2022-08-05T19:06:51.498Z,-62.2
2022-08-05T19:11:58.936Z,-62.1
2022-08-05T19:17:06.752Z,-62.6
2022-08-05T19:22:15.072Z,-62.6
2022-08-05T19:27:22.506Z,-62.4
2022-08-05T19:32:30.321Z,-62.4
2022-08-05T19:37:38.327Z,-62.2
2022-08-05T19:42:46.647Z,-62.5
2022-08-05T19:56:24.695Z,-62.1
2022-08-05T20:01:32.807Z,-62.3
2022-08-05T20:06:39.622Z,-62.1
2022-08-05T20:11:47.284Z,-61.9
2022-08-05T20:16:54.647Z,-62.4
2022-08-05T20:22:01.985Z,-62.0
2022-08-05T20:27:09.634Z,-61.9
2022-08-05T20:32:17.500Z,-62.1
2022-08-05T20:37:25.536Z,-62.0
2022-08-05T20:42:33.752Z,-62.4
2022-08-05T20:47:42.731Z,-62.7
2022-08-05T20:52:56.500Z,-62.5
2022-08-05T20:58:04.429Z,-62.0
2022-08-05T21:03:12.223Z,-62.4
2022-08-05T21:08:19.423Z,-62.1
2022-08-05T21:13:26.659Z,-62.2
2022-08-05T21:18:35.605Z,-62.2
2022-08-05T21:23:44.088Z,-62.2
2022-08-05T21:28:51.414Z,-62.1
2022-08-05T21:33:58.620Z,-62.1
2022-08-05T21:39:08.064Z,-62.6
2022-08-05T21:44:16.558Z,-62.2
2022-08-05T21:49:24.089Z,-62.4
2022-08-05T21:54:31.478Z,-62.5
2022-08-05T21:59:38.217Z,-62.2
2022-08-05T22:04:45.126Z,-62.4
2022-08-05T22:09:51.834Z,-62.2
2022-08-05T22:14:59.922Z,-62.2
2022-08-05T22:20:07.289Z,-62.3
2022-08-05T22:25:15.609Z,-62.4
2022-08-05T22:30:21.692Z,-62.1
2022-08-05T22:35:29.526Z,-62.0
2022-08-05T22:40:37.286Z,-62.1
2022-08-05T22:45:45.889Z,-61.7
2022-08-05T22:50:54.869Z,-62.2
2022-08-05T22:56:01.748Z,-62.1
2022-08-05T23:01:08.721Z,-62.2
2022-08-05T23:06:16.539Z,-62.2
2022-08-05T23:11:24.563Z,-62.3
2022-08-05T23:16:32.239Z,-62.1
2022-08-05T23:21:39.000Z,-62.4
2022-08-05T23:26:46.901Z,-62.4
2022-08-05T23:31:53.211Z,-62.3
2022-08-05T23:37:01.139Z,-62.3
2022-08-05T23:42:09.359Z,-62.2
2022-08-05T23:47:16.425Z,-62.2
2022-08-05T23:52:22.951Z,-62.3
2022-08-05T23:57:31.397Z,-62.3
